sensor_id;sensor_type;location;lat;lon;timestamp;P1;durP1;ratioP1;P2;durP2;ratioP2
44446;SDS011;30152;52.066;5.358;2022-07-22T06:48:17;13.60;;;1.70;;
44446;SDS011;30152;52.066;5.358;2022-07-22T06:50:43;7.55;;;1.42;;
44446;SDS011;30152;52.066;5.358;2022-07-22T06:53:09;8.85;;;1.73;;
44446;SDS011;30152;52.066;5.358;2022-07-22T06:55:34;5.95;;;1.00;;
44446;SDS011;30152;52.066;5.358;2022-07-22T06:58:00;5.72;;;1.23;;
44446;SDS011;30152;52.066;5.358;2022-07-22T07:00:26;7.15;;;1.55;;
44446;SDS011;30152;52.066;5.358;2022-07-22T07:02:52;6.07;;;1.30;;
44446;SDS011;30152;52.066;5.358;2022-07-22T07:05:18;5.72;;;1.15;;
44446;SDS011;30152;52.066;5.358;2022-07-22T07:07:44;5.57;;;1.52;;
44446;SDS011;30152;52.066;5.358;2022-07-22T07:10:10;8.77;;;1.60;;
44446;SDS011;30152;52.066;5.358;2022-07-22T07:12:37;6.85;;;1.30;;
44446;SDS011;30152;52.066;5.358;2022-07-22T07:15:03;5.07;;;1.30;;
44446;SDS011;30152;52.066;5.358;2022-07-22T07:17:30;7.40;;;1.73;;
44446;SDS011;30152;52.066;5.358;2022-07-22T07:19:55;10.23;;;1.20;;
44446;SDS011;30152;52.066;5.358;2022-07-22T07:22:21;7.47;;;1.52;;
44446;SDS011;30152;52.066;5.358;2022-07-22T07:24:47;6.53;;;1.00;;
44446;SDS011;30152;52.066;5.358;2022-07-22T07:27:13;5.68;;;0.90;;
44446;SDS011;30152;52.066;5.358;2022-07-22T07:29:39;7.13;;;1.20;;
44446;SDS011;30152;52.066;5.358;2022-07-22T07:32:05;7.20;;;1.13;;
44446;SDS011;30152;52.066;5.358;2022-07-22T07:34:31;5.53;;;1.30;;
44446;SDS011;30152;52.066;5.358;2022-07-22T07:36:56;3.72;;;0.80;;
44446;SDS011;30152;52.066;5.358;2022-07-22T07:39:23;4.43;;;1.25;;
44446;SDS011;30152;52.066;5.358;2022-07-22T07:41:48;5.45;;;1.17;;
44446;SDS011;30152;52.066;5.358;2022-07-22T07:44:16;6.20;;;1.40;;
44446;SDS011;30152;52.066;5.358;2022-07-22T07:46:41;8.20;;;1.30;;
44446;SDS011;30152;52.066;5.358;2022-07-22T07:49:07;5.75;;;1.30;;
44446;SDS011;30152;52.066;5.358;2022-07-22T07:51:36;4.45;;;0.90;;
44446;SDS011;30152;52.066;5.358;2022-07-22T07:54:02;9.50;;;1.30;;
44446;SDS011;30152;52.066;5.358;2022-07-22T07:56:28;5.53;;;1.33;;
44446;SDS011;30152;52.066;5.358;2022-07-22T07:58:54;4.68;;;1.05;;
44446;SDS011;30152;52.066;5.358;2022-07-22T08:01:20;6.18;;;1.48;;
44446;SDS011;30152;52.066;5.358;2022-07-22T08:03:45;7.10;;;1.33;;
44446;SDS011;30152;52.066;5.358;2022-07-22T08:06:11;4.32;;;0.88;;
44446;SDS011;30152;52.066;5.358;2022-07-22T08:08:37;6.82;;;1.20;;
44446;SDS011;30152;52.066;5.358;2022-07-22T08:11:02;9.80;;;1.55;;
44446;SDS011;30152;52.066;5.358;2022-07-22T08:13:28;7.18;;;1.42;;
44446;SDS011;30152;52.066;5.358;2022-07-22T08:15:54;2.97;;;0.90;;
44446;SDS011;30152;52.066;5.358;2022-07-22T08:18:20;4.32;;;1.10;;
44446;SDS011;30152;52.066;5.358;2022-07-22T08:20:46;8.02;;;1.48;;
44446;SDS011;30152;52.066;5.358;2022-07-22T08:23:12;6.90;;;1.10;;
44446;SDS011;30152;52.066;5.358;2022-07-22T08:25:38;5.32;;;1.10;;
44446;SDS011;30152;52.066;5.358;2022-07-22T08:28:05;5.22;;;1.33;;
44446;SDS011;30152;52.066;5.358;2022-07-22T08:30:31;8.05;;;1.30;;
44446;SDS011;30152;52.066;5.358;2022-07-22T08:32:57;4.65;;;1.20;;
44446;SDS011;30152;52.066;5.358;2022-07-22T08:35:23;4.82;;;1.00;;
44446;SDS011;30152;52.066;5.358;2022-07-22T08:37:49;6.80;;;1.70;;
44446;SDS011;30152;52.066;5.358;2022-07-22T08:40:16;4.35;;;1.10;;
44446;SDS011;30152;52.066;5.358;2022-07-22T08:42:42;7.07;;;1.20;;
44446;SDS011;30152;52.066;5.358;2022-07-22T08:45:11;3.58;;;0.82;;
44446;SDS011;30152;52.066;5.358;2022-07-22T08:47:37;3.90;;;1.00;;
44446;SDS011;30152;52.066;5.358;2022-07-22T08:50:03;6.25;;;1.38;;
44446;SDS011;30152;52.066;5.358;2022-07-22T08:52:30;5.65;;;1.42;;
44446;SDS011;30152;52.066;5.358;2022-07-22T08:54:56;4.78;;;1.30;;
44446;SDS011;30152;52.066;5.358;2022-07-22T08:57:22;5.78;;;1.20;;
44446;SDS011;30152;52.066;5.358;2022-07-22T08:59:52;4.80;;;1.23;;
44446;SDS011;30152;52.066;5.358;2022-07-22T09:02:24;6.78;;;1.23;;
44446;SDS011;30152;52.066;5.358;2022-07-22T09:07:26;7.22;;;1.65;;
44446;SDS011;30152;52.066;5.358;2022-07-22T09:09:54;7.18;;;1.35;;
44446;SDS011;30152;52.066;5.358;2022-07-22T09:12:20;6.03;;;1.45;;
44446;SDS011;30152;52.066;5.358;2022-07-22T09:14:47;7.70;;;1.15;;
44446;SDS011;30152;52.066;5.358;2022-07-22T09:19:54;5.13;;;1.10;;
44446;SDS011;30152;52.066;5.358;2022-07-22T09:22:38;7.78;;;1.38;;
44446;SDS011;30152;52.066;5.358;2022-07-22T09:27:43;8.38;;;1.95;;
44446;SDS011;30152;52.066;5.358;2022-07-22T09:30:17;8.10;;;1.48;;
44446;SDS011;30152;52.066;5.358;2022-07-22T09:32:44;5.40;;;1.15;;
44446;SDS011;30152;52.066;5.358;2022-07-22T09:35:13;7.05;;;1.52;;
44446;SDS011;30152;52.066;5.358;2022-07-22T09:37:49;5.97;;;1.25;;
44446;SDS011;30152;52.066;5.358;2022-07-22T09:40:18;7.70;;;1.75;;
44446;SDS011;30152;52.066;5.358;2022-07-22T09:42:46;9.50;;;1.65;;
44446;SDS011;30152;52.066;5.358;2022-07-22T09:45:34;5.88;;;1.10;;
44446;SDS011;30152;52.066;5.358;2022-07-22T09:48:00;6.25;;;1.48;;
44446;SDS011;30152;52.066;5.358;2022-07-22T09:50:30;4.25;;;1.13;;
44446;SDS011;30152;52.066;5.358;2022-07-22T09:52:58;6.75;;;1.83;;
44446;SDS011;30152;52.066;5.358;2022-07-22T09:55:25;5.38;;;1.40;;
44446;SDS011;30152;52.066;5.358;2022-07-22T09:57:54;7.10;;;1.40;;
44446;SDS011;30152;52.066;5.358;2022-07-22T10:00:21;5.53;;;1.50;;
44446;SDS011;30152;52.066;5.358;2022-07-22T10:02:49;7.22;;;1.38;;
44446;SDS011;30152;52.066;5.358;2022-07-22T10:05:19;4.50;;;1.20;;
44446;SDS011;30152;52.066;5.358;2022-07-22T10:07:47;8.88;;;1.20;;
44446;SDS011;30152;52.066;5.358;2022-07-22T10:10:17;6.60;;;1.40;;
44446;SDS011;30152;52.066;5.358;2022-07-22T10:12:45;7.50;;;1.98;;
44446;SDS011;30152;52.066;5.358;2022-07-22T10:15:13;5.80;;;1.65;;
44446;SDS011;30152;52.066;5.358;2022-07-22T10:17:41;5.38;;;1.27;;
44446;SDS011;30152;52.066;5.358;2022-07-22T10:20:13;5.85;;;1.40;;
44446;SDS011;30152;52.066;5.358;2022-07-22T10:22:55;6.43;;;1.67;;
44446;SDS011;30152;52.066;5.358;2022-07-22T10:28:00;8.93;;;1.63;;
44446;SDS011;30152;52.066;5.358;2022-07-22T10:33:06;6.03;;;1.90;;
44446;SDS011;30152;52.066;5.358;2022-07-22T10:35:33;7.50;;;1.85;;
44446;SDS011;30152;52.066;5.358;2022-07-22T10:38:13;6.68;;;1.50;;
44446;SDS011;30152;52.066;5.358;2022-07-22T10:40:50;6.15;;;1.52;;
44446;SDS011;30152;52.066;5.358;2022-07-22T10:43:21;6.25;;;1.35;;
44446;SDS011;30152;52.066;5.358;2022-07-22T10:48:19;6.28;;;1.60;;
44446;SDS011;30152;52.066;5.358;2022-07-22T10:51:19;7.20;;;1.60;;
44446;SDS011;30152;52.066;5.358;2022-07-22T10:58:52;4.85;;;1.42;;
44446;SDS011;30152;52.066;5.358;2022-07-22T11:01:21;5.70;;;1.48;;
44446;SDS011;30152;52.066;5.358;2022-07-22T11:03:49;4.70;;;1.50;;
44446;SDS011;30152;52.066;5.358;2022-07-22T11:06:17;5.55;;;1.40;;
44446;SDS011;30152;52.066;5.358;2022-07-22T11:08:43;7.60;;;1.50;;
44446;SDS011;30152;52.066;5.358;2022-07-22T11:11:10;6.18;;;1.77;;
44446;SDS011;30152;52.066;5.358;2022-07-22T11:13:37;4.63;;;1.23;;
44446;SDS011;30152;52.066;5.358;2022-07-22T11:16:20;8.05;;;1.67;;
44446;SDS011;30152;52.066;5.358;2022-07-22T11:18:55;7.70;;;3.30;;
44446;SDS011;30152;52.066;5.358;2022-07-22T11:21:31;7.80;;;1.45;;
44446;SDS011;30152;52.066;5.358;2022-07-22T11:23:59;10.27;;;1.92;;
44446;SDS011;30152;52.066;5.358;2022-07-22T11:26:42;4.35;;;1.48;;
44446;SDS011;30152;52.066;5.358;2022-07-22T11:29:15;6.72;;;1.60;;
44446;SDS011;30152;52.066;5.358;2022-07-22T11:31:56;5.70;;;1.70;;
44446;SDS011;30152;52.066;5.358;2022-07-22T11:34:23;7.35;;;2.13;;
44446;SDS011;30152;52.066;5.358;2022-07-22T11:36:50;7.40;;;2.22;;
44446;SDS011;30152;52.066;5.358;2022-07-22T11:39:20;8.40;;;2.13;;
44446;SDS011;30152;52.066;5.358;2022-07-22T11:41:50;7.10;;;2.25;;
44446;SDS011;30152;52.066;5.358;2022-07-22T11:44:17;6.75;;;2.40;;
44446;SDS011;30152;52.066;5.358;2022-07-22T11:46:47;7.78;;;3.22;;
44446;SDS011;30152;52.066;5.358;2022-07-22T11:49:14;8.15;;;3.10;;
44446;SDS011;30152;52.066;5.358;2022-07-22T11:51:41;11.25;;;2.72;;
44446;SDS011;30152;52.066;5.358;2022-07-22T11:54:07;6.68;;;3.10;;
44446;SDS011;30152;52.066;5.358;2022-07-22T11:56:34;7.40;;;3.40;;
44446;SDS011;30152;52.066;5.358;2022-07-22T11:59:00;7.20;;;3.13;;
44446;SDS011;30152;52.066;5.358;2022-07-22T12:01:32;6.47;;;2.80;;
44446;SDS011;30152;52.066;5.358;2022-07-22T12:04:01;5.65;;;2.50;;
44446;SDS011;30152;52.066;5.358;2022-07-22T12:06:29;6.57;;;2.70;;
44446;SDS011;30152;52.066;5.358;2022-07-22T12:09:05;9.18;;;3.33;;
44446;SDS011;30152;52.066;5.358;2022-07-22T12:11:42;10.13;;;3.83;;
44446;SDS011;30152;52.066;5.358;2022-07-22T12:14:18;7.80;;;3.40;;
44446;SDS011;30152;52.066;5.358;2022-07-22T12:19:35;9.88;;;3.70;;
44446;SDS011;30152;52.066;5.358;2022-07-22T12:22:03;8.07;;;3.33;;
44446;SDS011;30152;52.066;5.358;2022-07-22T12:24:34;7.35;;;3.40;;
44446;SDS011;30152;52.066;5.358;2022-07-22T12:27:11;8.02;;;3.58;;
44446;SDS011;30152;52.066;5.358;2022-07-22T12:32:06;7.82;;;3.53;;
44446;SDS011;30152;52.066;5.358;2022-07-22T12:37:41;8.85;;;3.25;;
44446;SDS011;30152;52.066;5.358;2022-07-22T12:40:12;7.47;;;3.35;;
44446;SDS011;30152;52.066;5.358;2022-07-22T12:42:45;10.15;;;3.38;;
44446;SDS011;30152;52.066;5.358;2022-07-22T12:45:25;7.93;;;3.80;;
44446;SDS011;30152;52.066;5.358;2022-07-22T12:47:56;6.72;;;3.35;;
44446;SDS011;30152;52.066;5.358;2022-07-22T12:50:38;9.10;;;3.83;;
44446;SDS011;30152;52.066;5.358;2022-07-22T12:55:32;9.38;;;3.33;;
44446;SDS011;30152;52.066;5.358;2022-07-22T12:57:59;6.47;;;3.63;;
44446;SDS011;30152;52.066;5.358;2022-07-22T13:00:26;10.63;;;3.42;;
44446;SDS011;30152;52.066;5.358;2022-07-22T13:02:55;9.50;;;3.53;;
44446;SDS011;30152;52.066;5.358;2022-07-22T13:05:21;6.28;;;3.47;;
44446;SDS011;30152;52.066;5.358;2022-07-22T13:07:48;6.68;;;3.08;;
44446;SDS011;30152;52.066;5.358;2022-07-22T13:10:14;6.57;;;3.47;;
44446;SDS011;30152;52.066;5.358;2022-07-22T13:12:40;7.55;;;3.53;;
44446;SDS011;30152;52.066;5.358;2022-07-22T13:15:07;10.63;;;3.30;;
44446;SDS011;30152;52.066;5.358;2022-07-22T13:17:34;6.20;;;3.10;;
44446;SDS011;30152;52.066;5.358;2022-07-22T13:20:00;6.90;;;3.30;;
44446;SDS011;30152;52.066;5.358;2022-07-22T13:22:26;6.82;;;3.58;;
44446;SDS011;30152;52.066;5.358;2022-07-22T13:24:52;7.55;;;3.35;;
44446;SDS011;30152;52.066;5.358;2022-07-22T13:27:18;6.93;;;3.80;;
44446;SDS011;30152;52.066;5.358;2022-07-22T13:29:44;8.35;;;3.22;;
44446;SDS011;30152;52.066;5.358;2022-07-22T13:32:09;9.00;;;3.25;;
44446;SDS011;30152;52.066;5.358;2022-07-22T13:34:35;7.93;;;3.42;;
44446;SDS011;30152;52.066;5.358;2022-07-22T13:37:01;6.90;;;3.53;;
44446;SDS011;30152;52.066;5.358;2022-07-22T13:39:27;6.85;;;3.53;;
44446;SDS011;30152;52.066;5.358;2022-07-22T13:41:52;11.52;;;3.33;;
44446;SDS011;30152;52.066;5.358;2022-07-22T13:44:18;6.78;;;3.20;;
44446;SDS011;30152;52.066;5.358;2022-07-22T13:46:44;9.45;;;3.58;;
44446;SDS011;30152;52.066;5.358;2022-07-22T13:49:12;8.85;;;3.78;;
44446;SDS011;30152;52.066;5.358;2022-07-22T13:51:37;8.10;;;3.53;;
44446;SDS011;30152;52.066;5.358;2022-07-22T13:54:03;8.02;;;3.60;;
44446;SDS011;30152;52.066;5.358;2022-07-22T13:56:30;7.63;;;3.53;;
44446;SDS011;30152;52.066;5.358;2022-07-22T13:58:57;7.47;;;3.47;;
44446;SDS011;30152;52.066;5.358;2022-07-22T14:01:23;7.82;;;3.25;;
44446;SDS011;30152;52.066;5.358;2022-07-22T14:03:49;7.15;;;3.08;;
44446;SDS011;30152;52.066;5.358;2022-07-22T14:06:15;7.70;;;4.40;;
44446;SDS011;30152;52.066;5.358;2022-07-22T14:08:41;7.07;;;3.40;;
44446;SDS011;30152;52.066;5.358;2022-07-22T14:11:07;6.25;;;3.75;;
44446;SDS011;30152;52.066;5.358;2022-07-22T14:13:32;6.57;;;3.13;;
44446;SDS011;30152;52.066;5.358;2022-07-22T14:15:58;9.85;;;3.97;;
44446;SDS011;30152;52.066;5.358;2022-07-22T14:18:44;6.53;;;3.60;;
44446;SDS011;30152;52.066;5.358;2022-07-22T14:21:10;9.48;;;3.90;;
44446;SDS011;30152;52.066;5.358;2022-07-22T14:23:36;9.70;;;3.13;;
44446;SDS011;30152;52.066;5.358;2022-07-22T14:26:01;9.48;;;3.55;;
44446;SDS011;30152;52.066;5.358;2022-07-22T14:28:27;8.80;;;3.17;;
44446;SDS011;30152;52.066;5.358;2022-07-22T14:30:53;8.02;;;3.05;;
44446;SDS011;30152;52.066;5.358;2022-07-22T14:33:19;7.63;;;3.40;;
44446;SDS011;30152;52.066;5.358;2022-07-22T14:35:44;9.50;;;3.65;;
44446;SDS011;30152;52.066;5.358;2022-07-22T14:38:10;7.43;;;3.08;;
44446;SDS011;30152;52.066;5.358;2022-07-22T14:40:36;7.80;;;3.55;;
44446;SDS011;30152;52.066;5.358;2022-07-22T14:43:02;7.45;;;2.70;;
44446;SDS011;30152;52.066;5.358;2022-07-22T14:45:27;8.55;;;3.08;;
44446;SDS011;30152;52.066;5.358;2022-07-22T14:47:53;6.75;;;2.80;;
44446;SDS011;30152;52.066;5.358;2022-07-22T14:50:19;5.15;;;2.60;;
44446;SDS011;30152;52.066;5.358;2022-07-22T14:52:45;6.35;;;2.50;;
44446;SDS011;30152;52.066;5.358;2022-07-22T14:55:11;5.20;;;2.40;;
44446;SDS011;30152;52.066;5.358;2022-07-22T14:57:36;8.27;;;2.80;;
44446;SDS011;30152;52.066;5.358;2022-07-22T15:00:02;6.25;;;2.60;;
44446;SDS011;30152;52.066;5.358;2022-07-22T15:02:28;8.18;;;2.90;;
44446;SDS011;30152;52.066;5.358;2022-07-22T15:04:54;6.82;;;2.72;;
44446;SDS011;30152;52.066;5.358;2022-07-22T15:07:20;6.70;;;2.50;;
44446;SDS011;30152;52.066;5.358;2022-07-22T15:09:46;7.43;;;2.35;;
44446;SDS011;30152;52.066;5.358;2022-07-22T15:12:12;8.95;;;2.70;;
44446;SDS011;30152;52.066;5.358;2022-07-22T15:14:38;6.85;;;3.00;;
44446;SDS011;30152;52.066;5.358;2022-07-22T15:17:04;5.80;;;2.63;;
44446;SDS011;30152;52.066;5.358;2022-07-22T15:19:30;5.85;;;2.10;;
44446;SDS011;30152;52.066;5.358;2022-07-22T15:21:56;6.82;;;2.10;;
44446;SDS011;30152;52.066;5.358;2022-07-22T15:24:21;7.30;;;2.30;;
44446;SDS011;30152;52.066;5.358;2022-07-22T15:26:47;6.07;;;2.13;;
44446;SDS011;30152;52.066;5.358;2022-07-22T15:29:13;5.65;;;2.08;;
44446;SDS011;30152;52.066;5.358;2022-07-22T15:31:39;6.22;;;1.92;;
44446;SDS011;30152;52.066;5.358;2022-07-22T15:34:07;6.38;;;2.05;;
44446;SDS011;30152;52.066;5.358;2022-07-22T15:36:32;7.50;;;2.40;;
44446;SDS011;30152;52.066;5.358;2022-07-22T15:38:59;6.07;;;2.17;;
44446;SDS011;30152;52.066;5.358;2022-07-22T15:41:24;11.00;;;2.40;;
44446;SDS011;30152;52.066;5.358;2022-07-22T15:43:50;6.32;;;2.17;;
44446;SDS011;30152;52.066;5.358;2022-07-22T15:46:16;6.13;;;1.90;;
44446;SDS011;30152;52.066;5.358;2022-07-22T15:48:42;5.85;;;1.88;;
44446;SDS011;30152;52.066;5.358;2022-07-22T15:51:09;6.03;;;2.15;;
44446;SDS011;30152;52.066;5.358;2022-07-22T15:53:36;4.70;;;1.90;;
44446;SDS011;30152;52.066;5.358;2022-07-22T15:56:01;6.90;;;1.90;;
44446;SDS011;30152;52.066;5.358;2022-07-22T15:58:27;7.20;;;2.08;;
44446;SDS011;30152;52.066;5.358;2022-07-22T16:01:12;4.97;;;1.77;;
44446;SDS011;30152;52.066;5.358;2022-07-22T16:03:38;8.73;;;2.88;;
44446;SDS011;30152;52.066;5.358;2022-07-22T16:06:03;6.82;;;1.98;;
44446;SDS011;30152;52.066;5.358;2022-07-22T16:08:29;7.35;;;2.42;;
44446;SDS011;30152;52.066;5.358;2022-07-22T16:10:55;5.80;;;2.08;;
44446;SDS011;30152;52.066;5.358;2022-07-22T16:13:22;7.30;;;2.20;;
44446;SDS011;30152;52.066;5.358;2022-07-22T16:15:48;5.38;;;1.90;;
44446;SDS011;30152;52.066;5.358;2022-07-22T16:18:13;6.65;;;2.15;;
44446;SDS011;30152;52.066;5.358;2022-07-22T16:20:40;5.90;;;1.70;;
44446;SDS011;30152;52.066;5.358;2022-07-22T16:23:06;4.20;;;1.67;;
44446;SDS011;30152;52.066;5.358;2022-07-22T16:25:32;6.00;;;1.65;;
44446;SDS011;30152;52.066;5.358;2022-07-22T16:27:58;5.47;;;1.90;;
44446;SDS011;30152;52.066;5.358;2022-07-22T16:30:23;5.38;;;1.60;;
44446;SDS011;30152;52.066;5.358;2022-07-22T16:32:49;5.25;;;2.17;;
44446;SDS011;30152;52.066;5.358;2022-07-22T16:35:15;7.53;;;1.85;;
44446;SDS011;30152;52.066;5.358;2022-07-22T16:37:41;5.68;;;1.60;;
44446;SDS011;30152;52.066;5.358;2022-07-22T16:40:08;4.60;;;1.67;;
44446;SDS011;30152;52.066;5.358;2022-07-22T16:42:34;7.78;;;1.92;;
44446;SDS011;30152;52.066;5.358;2022-07-22T16:45:00;7.47;;;1.77;;
44446;SDS011;30152;52.066;5.358;2022-07-22T16:47:28;6.22;;;2.10;;
44446;SDS011;30152;52.066;5.358;2022-07-22T16:49:54;5.32;;;1.70;;
44446;SDS011;30152;52.066;5.358;2022-07-22T16:52:20;4.60;;;1.73;;
44446;SDS011;30152;52.066;5.358;2022-07-22T16:54:51;4.65;;;1.75;;
44446;SDS011;30152;52.066;5.358;2022-07-22T16:57:17;8.07;;;1.80;;
44446;SDS011;30152;52.066;5.358;2022-07-22T16:59:42;4.63;;;1.60;;
44446;SDS011;30152;52.066;5.358;2022-07-22T17:02:08;5.53;;;1.58;;
44446;SDS011;30152;52.066;5.358;2022-07-22T17:04:35;5.45;;;1.73;;
44446;SDS011;30152;52.066;5.358;2022-07-22T17:07:01;6.10;;;1.23;;
44446;SDS011;30152;52.066;5.358;2022-07-22T17:09:27;5.07;;;1.60;;
44446;SDS011;30152;52.066;5.358;2022-07-22T17:11:53;7.70;;;1.48;;
44446;SDS011;30152;52.066;5.358;2022-07-22T17:14:19;7.28;;;1.73;;
44446;SDS011;30152;52.066;5.358;2022-07-22T17:16:45;7.53;;;1.52;;
44446;SDS011;30152;52.066;5.358;2022-07-22T17:19:11;5.50;;;1.55;;
44446;SDS011;30152;52.066;5.358;2022-07-22T17:21:37;5.88;;;1.92;;
44446;SDS011;30152;52.066;5.358;2022-07-22T17:24:03;7.93;;;1.50;;
44446;SDS011;30152;52.066;5.358;2022-07-22T17:26:29;4.85;;;1.73;;
44446;SDS011;30152;52.066;5.358;2022-07-22T17:28:55;7.15;;;1.52;;
44446;SDS011;30152;52.066;5.358;2022-07-22T17:31:21;4.53;;;1.33;;
44446;SDS011;30152;52.066;5.358;2022-07-22T17:33:50;5.25;;;1.45;;
44446;SDS011;30152;52.066;5.358;2022-07-22T17:36:15;8.55;;;1.88;;
44446;SDS011;30152;52.066;5.358;2022-07-22T17:38:41;7.05;;;1.65;;
44446;SDS011;30152;52.066;5.358;2022-07-22T17:41:08;6.75;;;1.73;;
44446;SDS011;30152;52.066;5.358;2022-07-22T17:43:34;5.60;;;1.23;;
44446;SDS011;30152;52.066;5.358;2022-07-22T17:46:00;6.38;;;1.88;;
44446;SDS011;30152;52.066;5.358;2022-07-22T17:48:26;6.00;;;1.45;;
44446;SDS011;30152;52.066;5.358;2022-07-22T17:50:52;6.45;;;1.58;;
44446;SDS011;30152;52.066;5.358;2022-07-22T17:53:18;8.65;;;1.85;;
44446;SDS011;30152;52.066;5.358;2022-07-22T17:55:44;5.45;;;1.55;;
44446;SDS011;30152;52.066;5.358;2022-07-22T17:58:10;5.57;;;1.90;;
44446;SDS011;30152;52.066;5.358;2022-07-22T18:00:36;8.02;;;1.60;;
44446;SDS011;30152;52.066;5.358;2022-07-22T18:03:02;8.52;;;1.70;;
44446;SDS011;30152;52.066;5.358;2022-07-22T18:05:28;6.90;;;1.45;;
44446;SDS011;30152;52.066;5.358;2022-07-22T18:07:54;5.75;;;1.70;;
44446;SDS011;30152;52.066;5.358;2022-07-22T18:10:20;10.30;;;1.48;;
44446;SDS011;30152;52.066;5.358;2022-07-22T18:12:46;4.95;;;1.30;;
44446;SDS011;30152;52.066;5.358;2022-07-22T18:15:13;5.82;;;1.80;;
44446;SDS011;30152;52.066;5.358;2022-07-22T18:17:39;6.75;;;1.52;;
44446;SDS011;30152;52.066;5.358;2022-07-22T18:20:06;6.50;;;2.20;;
44446;SDS011;30152;52.066;5.358;2022-07-22T18:22:32;7.88;;;1.90;;
44446;SDS011;30152;52.066;5.358;2022-07-22T18:24:58;5.45;;;1.50;;
44446;SDS011;30152;52.066;5.358;2022-07-22T18:27:24;7.03;;;2.15;;
44446;SDS011;30152;52.066;5.358;2022-07-22T18:29:49;4.72;;;1.40;;
44446;SDS011;30152;52.066;5.358;2022-07-22T18:32:15;3.72;;;1.33;;
44446;SDS011;30152;52.066;5.358;2022-07-22T18:34:42;7.45;;;1.60;;
44446;SDS011;30152;52.066;5.358;2022-07-22T18:37:08;6.20;;;1.80;;
44446;SDS011;30152;52.066;5.358;2022-07-22T18:39:34;8.38;;;1.65;;
44446;SDS011;30152;52.066;5.358;2022-07-22T18:42:00;6.03;;;1.60;;
44446;SDS011;30152;52.066;5.358;2022-07-22T18:44:28;6.70;;;1.75;;
44446;SDS011;30152;52.066;5.358;2022-07-22T18:46:53;5.75;;;1.52;;
44446;SDS011;30152;52.066;5.358;2022-07-22T18:49:19;6.30;;;1.70;;
44446;SDS011;30152;52.066;5.358;2022-07-22T18:51:45;4.03;;;1.50;;
44446;SDS011;30152;52.066;5.358;2022-07-22T18:54:11;11.05;;;1.80;;
44446;SDS011;30152;52.066;5.358;2022-07-22T18:56:37;7.03;;;1.92;;
44446;SDS011;30152;52.066;5.358;2022-07-22T18:59:04;5.88;;;1.40;;
44446;SDS011;30152;52.066;5.358;2022-07-22T19:01:30;8.27;;;2.15;;
44446;SDS011;30152;52.066;5.358;2022-07-22T19:03:56;4.13;;;1.50;;
44446;SDS011;30152;52.066;5.358;2022-07-22T19:06:22;4.32;;;1.40;;
44446;SDS011;30152;52.066;5.358;2022-07-22T19:08:48;5.93;;;1.67;;
44446;SDS011;30152;52.066;5.358;2022-07-22T19:11:14;6.15;;;1.17;;
44446;SDS011;30152;52.066;5.358;2022-07-22T19:13:40;7.30;;;1.60;;
44446;SDS011;30152;52.066;5.358;2022-07-22T19:16:06;4.88;;;1.48;;
44446;SDS011;30152;52.066;5.358;2022-07-22T19:18:32;6.90;;;2.17;;
44446;SDS011;30152;52.066;5.358;2022-07-22T19:20:57;5.70;;;1.83;;
44446;SDS011;30152;52.066;5.358;2022-07-22T19:23:23;4.90;;;1.77;;
44446;SDS011;30152;52.066;5.358;2022-07-22T19:25:49;5.22;;;1.75;;
44446;SDS011;30152;52.066;5.358;2022-07-22T19:28:15;5.88;;;2.15;;
44446;SDS011;30152;52.066;5.358;2022-07-22T19:30:42;5.80;;;1.70;;
44446;SDS011;30152;52.066;5.358;2022-07-22T19:33:08;6.70;;;1.58;;
44446;SDS011;30152;52.066;5.358;2022-07-22T19:35:34;5.07;;;1.55;;
44446;SDS011;30152;52.066;5.358;2022-07-22T19:37:59;11.73;;;1.88;;
44446;SDS011;30152;52.066;5.358;2022-07-22T19:40:26;6.63;;;1.63;;
44446;SDS011;30152;52.066;5.358;2022-07-22T19:42:52;6.50;;;1.85;;
44446;SDS011;30152;52.066;5.358;2022-07-22T19:45:18;5.10;;;1.60;;
44446;SDS011;30152;52.066;5.358;2022-07-22T19:47:44;5.90;;;1.70;;
44446;SDS011;30152;52.066;5.358;2022-07-22T19:50:09;5.07;;;1.90;;
44446;SDS011;30152;52.066;5.358;2022-07-22T19:52:35;6.43;;;1.73;;
44446;SDS011;30152;52.066;5.358;2022-07-22T19:55:03;6.68;;;1.77;;
44446;SDS011;30152;52.066;5.358;2022-07-22T19:57:29;5.05;;;1.80;;
44446;SDS011;30152;52.066;5.358;2022-07-22T19:59:56;8.57;;;2.00;;
44446;SDS011;30152;52.066;5.358;2022-07-22T20:02:22;10.80;;;2.92;;
44446;SDS011;30152;52.066;5.358;2022-07-22T20:04:48;6.35;;;2.03;;
44446;SDS011;30152;52.066;5.358;2022-07-22T20:07:14;7.55;;;2.42;;
44446;SDS011;30152;52.066;5.358;2022-07-22T20:09:39;4.95;;;2.03;;
44446;SDS011;30152;52.066;5.358;2022-07-22T20:12:05;5.82;;;1.98;;
44446;SDS011;30152;52.066;5.358;2022-07-22T20:14:36;6.35;;;1.88;;
44446;SDS011;30152;52.066;5.358;2022-07-22T20:17:02;5.70;;;2.28;;
44446;SDS011;30152;52.066;5.358;2022-07-22T20:19:28;5.03;;;1.77;;
44446;SDS011;30152;52.066;5.358;2022-07-22T20:21:53;6.03;;;2.00;;
44446;SDS011;30152;52.066;5.358;2022-07-22T20:24:19;5.22;;;2.10;;
44446;SDS011;30152;52.066;5.358;2022-07-22T20:26:45;5.78;;;1.55;;
44446;SDS011;30152;52.066;5.358;2022-07-22T20:29:11;5.22;;;1.83;;
44446;SDS011;30152;52.066;5.358;2022-07-22T20:31:36;4.20;;;1.63;;
44446;SDS011;30152;52.066;5.358;2022-07-22T20:34:05;5.78;;;2.03;;
44446;SDS011;30152;52.066;5.358;2022-07-22T20:36:31;5.63;;;1.83;;
44446;SDS011;30152;52.066;5.358;2022-07-22T20:38:57;9.43;;;2.25;;
44446;SDS011;30152;52.066;5.358;2022-07-22T20:41:22;7.80;;;1.92;;
44446;SDS011;30152;52.066;5.358;2022-07-22T20:43:48;4.82;;;1.77;;
44446;SDS011;30152;52.066;5.358;2022-07-22T20:46:14;6.22;;;1.52;;
44446;SDS011;30152;52.066;5.358;2022-07-22T20:48:40;7.05;;;2.00;;
44446;SDS011;30152;52.066;5.358;2022-07-22T20:51:05;6.43;;;1.77;;
44446;SDS011;30152;52.066;5.358;2022-07-22T20:53:31;6.70;;;1.75;;
44446;SDS011;30152;52.066;5.358;2022-07-22T20:55:58;8.25;;;2.25;;
44446;SDS011;30152;52.066;5.358;2022-07-22T20:58:24;5.13;;;1.90;;
44446;SDS011;30152;52.066;5.358;2022-07-22T21:00:50;9.50;;;2.15;;
44446;SDS011;30152;52.066;5.358;2022-07-22T21:03:16;11.15;;;2.10;;
44446;SDS011;30152;52.066;5.358;2022-07-22T21:05:42;6.03;;;2.10;;
44446;SDS011;30152;52.066;5.358;2022-07-22T21:08:08;6.97;;;2.22;;
